• Join FlightAware (Why Join?)
  • Login
  • US Flag 
08:18AM EDT


 

Airport Tracker/Info


-or-


 

Live Flight TrackerFlight Track Log ✈ UAL247 ✈ 07-Sep-2013 ✈ KSEA - KORD

Flight Track Log - Related Links

Times and Time Zones

All times are in EDT time to prevent confusion due to time zone crossing. See the UAL247 flight status page for this flight to view local times or setup timezone preferences in your user account.

Time Position Orientation Groundspeed Altitude Reporting Facility
EDT Latitude Longitude Course Direction KTS MPH feet Rate Location/Type
12:13PM 47.4286 -122.3108 105° East 160 184 1,600  Level Seattle Center
12:13PM 47.4228 -122.3114 184° South 167 192 1,800 1,260 Climbing Seattle Center
12:14PM 47.3692 -122.3097 179° South 193 222 3,200 1,740 Climbing Seattle Center
12:15PM 47.3119 -122.2800 161° South 268 308 5,200 2,220 Climbing Seattle Center
12:15PM 47.3072 -122.2658 116° Southeast 257 296 5,500 2,760 Climbing Seattle Center
12:16PM 47.4491 -121.7780 90° East  Level Estimated
12:16PM 47.3111 -122.1561 87° East 278 320 8,300  Level Seattle Center
12:17PM 47.4483 -121.6001 104° East  Level Estimated
12:17PM 47.3608 -122.0797 46° Northeast 284 327 9,000  Level Seattle Center
12:17PM 47.3653 -122.0756 32° Northeast 280 322 9,000 1,320 Level Seattle Center
12:18PM 47.4162 -121.4286 105° East  Level FlightAware Approximate
12:18PM 47.4267 -121.9897 43° Northeast 285 328 10,500  Level Seattle Center
12:19PM 47.4306 -121.8508 88° East 358 412 11,600 1,560 Climbing Seattle Center
12:20PM 47.4256 -121.6950 93° East 382 440 13,800 2,160 Climbing Seattle Center
12:21PM 47.3833 -121.5436 112° Southeast 396 456 16,100 1,920 Climbing Seattle Center
12:22PM 47.3406 -121.3733 110° East 411 473 17,800 1,380 Climbing Seattle Center
12:23PM 47.3044 -121.2386 112° Southeast 420 483 19,000 1,620 Climbing Seattle Center
12:24PM 47.2756 -121.0339 102° East 429 494 21,100 1,740 Climbing Seattle Center
12:25PM 47.2611 -120.8558 97° East 438 504 22,600 1,140 Climbing Seattle Center
12:26PM 47.2500 -120.6961 96° East 445 512 23,500 840 Climbing Seattle Center
12:27PM 47.2331 -120.5100 98° East 459 528 24,400 1,080 Climbing Seattle Center
12:28PM 47.2133 -120.2775 97° East 476 548 25,800 1,080 Climbing Seattle Center
12:30PM 47.1981 -120.0828 97° East 481 554 26,700 840 Climbing Seattle Center
12:31PM 47.1808 -119.8839 97° East 489 563 27,600 840 Climbing Seattle Center
12:32PM 47.1622 -119.6831 98° East 496 571 28,500 960 Climbing Seattle Center
12:33PM 47.1431 -119.4806 98° East 502 578 29,600 1,080 Climbing Seattle Center
12:34PM 47.1247 -119.2794 98° East 499 574 30,800 1,080 Climbing Seattle Center
12:35PM 47.1072 -119.0825 97° East 493 567 31,900 960 Climbing Seattle Center
12:36PM 47.0878 -118.8836 98° East 494 568 32,800 960 Climbing Seattle Center
12:37PM 47.0681 -118.6856 98° East 493 567 33,900 1,020 Climbing Seattle Center
12:38PM 47.0475 -118.4897 99° East 492 566 34,900 480 Climbing Seattle Center
12:39PM 47.0250 -118.2614 98° East 478 550 34,900  Level Seattle Center
12:40PM 47.0089 -118.0736 97° East 470 541 34,900  Level Seattle Center
12:41PM 46.9894 -117.8864 99° East 469 540 35,000  Climbing Seattle Center
12:42PM 46.9731 -117.6967 97° East 471 542 34,900  Descending Seattle Center
12:43PM 46.9539 -117.5069 98° East 475 547 35,000  Climbing Seattle Center
12:44PM 46.9375 -117.3189 97° East 472 543 35,000  Level Seattle Center
12:45PM 46.9203 -117.1333 98° East 467 537 35,000 -60 Level Seattle Center
12:46PM 46.9022 -116.9500 98° East 463 533 34,900 -60 Descending Seattle Center
12:47PM 46.8836 -116.7675 98° East 459 528 34,900  Level Seattle Center
12:48PM 46.8617 -116.5456 98° East 463 533 34,900  Level Seattle Center
12:49PM 46.8439 -116.3611 98° East 461 531 34,900  Level Seattle Center
12:50PM 46.8239 -116.1744 99° East 467 537 35,000  Climbing Seattle Center
12:51PM 46.8042 -115.9869 99° East 469 540 34,900  Descending Seattle Center
12:52PM 46.7844 -115.7969 99° East 475 547 35,000  Climbing Seattle Center
12:53PM 46.7633 -115.6078 99° East 474 545 35,000 -60 Level Seattle Center
12:54PM 46.7428 -115.4186 99° East 476 548 34,900  Descending Seattle Center
12:55PM 46.7186 -115.2061 99° East 476 548 35,000  Climbing Seattle Center
12:56PM 46.7017 -115.0550 99° East 475 547 35,000 -60 Level Salt Lake Center
12:57PM 46.6794 -114.8683 100° East 471 542 34,900 -60 Descending Salt Lake Center
12:58PM 46.6578 -114.6811 100° East 471 542 34,900  Level Salt Lake Center
12:59PM 46.6358 -114.4947 100° East 471 542 35,000  Climbing Salt Lake Center
01:00PM 46.6136 -114.3083 100° East 472 543 34,900  Descending Salt Lake Center
01:01PM 46.5900 -114.1203 100° East 475 547 35,000  Climbing Salt Lake Center
01:02PM 46.5761 -113.8908 95° East 479 551 35,000  Level Salt Lake Center
01:03PM 46.5756 -113.6936 90° East 488 562 35,000 -60 Level Salt Lake Center
01:04PM 46.5753 -113.5008 90° East 482 555 34,900  Descending Salt Lake Center
01:05PM 46.5739 -113.3044 91° East 486 559 35,000  Climbing Salt Lake Center
01:06PM 46.5725 -113.0972 90° East 482 555 35,000 -60 Level Salt Lake Center
01:07PM 46.5706 -112.9039 91° East 482 555 34,900  Descending Salt Lake Center
01:08PM 46.5681 -112.7128 91° East 476 548 35,000  Climbing Salt Lake Center
01:09PM 46.5658 -112.5217 91° East 475 547 34,900 -60 Descending Salt Lake Center
01:10PM 46.5614 -112.2917 92° East 475 547 34,900  Level Salt Lake Center
01:11PM 46.5581 -112.1003 91° East 477 549 34,900  Level Salt Lake Center
01:12PM 46.5547 -111.9097 91° East 475 547 35,000  Climbing Salt Lake Center
01:13PM 46.5506 -111.7172 92° East 479 551 34,900 -60 Descending Salt Lake Center
01:14PM 46.5461 -111.5264 92° East 478 550 34,900  Level Salt Lake Center
01:15PM 46.5911 -111.3358 71° East 513 590 35,000  Climbing Salt Lake Center
01:16PM 46.7003 -111.1383 51° Northeast 525 604 35,000 -60 Level Salt Lake Center
01:17PM 46.7908 -110.9747 51° Northeast 523 602 34,900 -60 Descending Salt Lake Center
01:18PM 46.8564 -110.7936 62° Northeast 509 586 34,900  Level Salt Lake Center
01:19PM 46.9069 -110.6025 69° East 508 585 34,900  Level Salt Lake Center
01:20PM 46.9564 -110.4114 69° East 507 583 35,000  Climbing Salt Lake Center
01:22PM 47.0047 -110.2214 69° East 506 582 35,000 -60 Level Salt Lake Center
01:23PM 47.0642 -109.9908 69° East 507 583 34,900  Descending Salt Lake Center
01:24PM 47.1139 -109.7981 69° East 508 585 35,000  Climbing Salt Lake Center
01:25PM 47.1631 -109.6064 69° East 506 582 35,000  Level Salt Lake Center
01:26PM 47.2111 -109.4186 69° East 499 574 35,000 -60 Level Salt Lake Center
01:27PM 47.2572 -109.2306 70° East 491 565 34,900  Descending Salt Lake Center
01:28PM 47.2833 -109.0369 79° East 494 568 35,000  Climbing Salt Lake Center
01:29PM 47.2517 -108.8136 102° East 466 536 34,900 -60 Descending Salt Lake Center
01:30PM 47.2231 -108.6286 103° East 467 537 34,900  Level Salt Lake Center
01:31PM 47.1956 -108.4297 101° East 467 537 35,000  Climbing Salt Lake Center
01:32PM 47.1672 -108.2433 103° East 469 540 35,000  Level Salt Lake Center
01:33PM 47.1375 -108.0539 103° East 475 547 35,000  Level Salt Lake Center
01:34PM 47.1086 -107.8664 103° East 473 544 35,000  Level Salt Lake Center
01:35PM 47.0783 -107.6792 103° East 473 544 35,000  Level Salt Lake Center
01:36PM 47.0483 -107.4911 103° East 475 547 35,000  Level Salt Lake Center
01:37PM 47.0119 -107.2694 103° East 469 540 35,000  Level Salt Lake Center
01:38PM 46.9828 -107.0903 103° East 458 527 35,000  Level Salt Lake Center
01:39PM 46.9533 -106.9114 103° East 455 524 35,000  Level Salt Lake Center
01:40PM 46.9222 -106.7317 104° East 456 525 35,000  Level Salt Lake Center
01:41PM 46.8925 -106.5542 104° East 453 521 35,000  Level Salt Lake Center
01:42PM 46.8464 -106.3847 112° Southeast 455 524 35,000  Level Salt Lake Center
01:43PM 46.7625 -106.2067 124° Southeast 450 518 35,000  Level Salt Lake Center
01:44PM 46.6925 -106.0581 124° Southeast 446 513 35,000  Level Salt Lake Center
01:45PM 46.6211 -105.9108 125° Southeast 448 516 35,000  Level Salt Lake Center
01:46PM 46.5469 -105.7644 126° Southeast 449 517 35,000  Level Salt Lake Center
01:47PM 46.4356 -105.6917 156° South 451 519 35,000  Level Salt Lake Center
01:48PM 46.3186 -105.6589 169° South 436 502 35,000  Level Salt Lake Center
01:49PM 46.1772 -105.6122 167° South 434 499 35,000  Level Salt Lake Center
01:50PM 46.0617 -105.5764 168° South 430 495 35,000  Level Salt Lake Center
01:51PM 45.9464 -105.5389 167° South 426 490 35,000  Level Salt Lake Center
01:52PM 45.8525 -105.4383 143° Southeast 434 499 35,000  Level Salt Lake Center
01:54PM 45.8189 -105.2658 106° East 462 532 35,000  Level Salt Lake Center
01:55PM 45.7947 -105.0764 100° East 482 555 35,000  Level Salt Lake Center
01:56PM 45.7664 -104.8528 100° East 479 551 35,000  Level Salt Lake Center
01:57PM 45.7414 -104.6661 101° East 478 550 35,000  Level Salt Lake Center
01:58PM 45.7164 -104.4825 101° East 474 545 35,000  Level Salt Lake Center
01:59PM 45.6917 -104.3036 101° East 466 536 35,000  Level Salt Lake Center
02:00PM 45.6669 -104.1250 101° East 462 532 35,000 -60 Level Salt Lake Center
02:01PM 45.6433 -103.9481 101° East 460 529 34,900  Descending Salt Lake Center
02:02PM 45.6178 -103.7683 101° East 461 531 35,000  Climbing Salt Lake Center
02:03PM 45.5869 -103.5525 101° East 463 533 35,000 -60 Level Salt Lake Center
02:04PM 45.5622 -103.3761 101° East 460 529 34,900 -60 Descending Salt Lake Center
02:05PM 45.5356 -103.1983 102° East 459 528 34,900  Level Salt Lake Center
02:06PM 45.5094 -103.0178 102° East 462 532 34,900  Level Salt Lake Center
02:07PM 45.4819 -102.8386 102° East 464 534 35,000  Climbing Salt Lake Center
02:08PM 45.4539 -102.6506 102° East 468 539 35,000  Level Minneapolis Center
02:09PM 45.4264 -102.4717 102° East 465 535 35,000  Level Minneapolis Center
02:10PM 45.3983 -102.2878 102° East 471 542 35,000  Level Minneapolis Center
02:11PM 45.3686 -102.1053 103° East 475 547 35,000  Level Minneapolis Center
02:12PM 45.3333 -101.8831 103° East 479 551 35,000  Level Minneapolis Center
02:13PM 45.3042 -101.6969 102° East 482 555 35,000  Level Minneapolis Center
02:14PM 45.2736 -101.5111 103° East 483 556 35,000  Level Minneapolis Center
02:15PM 45.2439 -101.3264 103° East 482 555 35,000  Level Minneapolis Center
02:16PM 45.2067 -101.1442 106° East 483 556 35,000  Level Minneapolis Center
02:17PM 45.1117 -101.0194 137° Southeast 471 542 35,000  Level Minneapolis Center
02:18PM 45.0072 -100.9150 145° Southeast 466 536 35,000  Level Minneapolis Center
02:19PM 44.8828 -100.7886 144° Southeast 463 533 35,000  Level Minneapolis Center
02:20PM 44.7800 -100.6839 144° Southeast 460 529 35,000  Level Minneapolis Center
02:21PM 44.7019 -100.5439 128° Southeast 468 539 35,000  Level Minneapolis Center
02:22PM 44.6775 -100.3636 101° East 472 543 35,000  Level Minneapolis Center
02:24PM 44.6525 -100.1839 101° East 474 545 35,000  Level Minneapolis Center
02:25PM 44.6206 -99.9339 100° East 470 541 35,000  Level Minneapolis Center
02:26PM 44.5964 -99.7558 101° East 469 540 35,000  Level Minneapolis Center
02:27PM 44.5731 -99.5786 100° East 467 537 35,000  Level Minneapolis Center
02:28PM 44.5483 -99.3986 101° East 469 540 35,000  Level Minneapolis Center
02:29PM 44.5233 -99.2186 101° East 472 543 35,000  Level Minneapolis Center
02:30PM 44.4936 -99.0039 101° East 471 542 35,000  Level Minneapolis Center
02:31PM 44.4664 -98.8256 102° East 471 542 35,000  Level Minneapolis Center
02:32PM 44.4311 -98.6467 105° East 474 545 35,000  Level Minneapolis Center
02:33PM 44.4047 -98.4653 101° East 477 549 35,000  Level Minneapolis Center
02:34PM 44.3775 -98.2858 102° East 477 549 35,000  Level Minneapolis Center
02:35PM 44.3483 -98.1011 102° East 481 554 35,000  Level Minneapolis Center
02:36PM 44.3217 -97.9169 101° East 485 558 35,000  Level Minneapolis Center
02:37PM 44.2883 -97.6967 102° East 483 556 35,000  Level Minneapolis Center
02:38PM 44.2617 -97.5125 101° East 485 558 35,000  Level Minneapolis Center
02:39PM 44.2314 -97.3289 103° East 487 560 35,000  Level Minneapolis Center
02:40PM 44.1958 -97.1100 103° East 485 558 35,000  Level Minneapolis Center
02:41PM 44.1672 -96.9269 102° East 486 559 35,000  Level Minneapolis Center
02:42PM 44.1378 -96.7456 103° East 483 556 35,000  Level Minneapolis Center
02:43PM 44.1019 -96.5269 103° East 486 559 35,000  Level Minneapolis Center
02:44PM 44.0717 -96.3456 103° East 489 563 35,000  Level Minneapolis Center
02:45PM 44.0422 -96.1647 103° East 494 568 35,000  Level Minneapolis Center
02:46PM 44.0133 -95.9847 103° East 489 563 35,000  Level Minneapolis Center
02:48PM 43.9764 -95.7675 103° East 487 560 35,000  Level Minneapolis Center
02:49PM 43.9450 -95.5861 103° East 487 560 35,000  Level Minneapolis Center
02:50PM 43.9133 -95.4044 104° East 487 560 35,000  Level Minneapolis Center
02:51PM 43.8803 -95.2217 104° East 490 564 35,000  Level Minneapolis Center
02:52PM 43.8472 -95.0403 104° East 489 563 35,000  Level Minneapolis Center
02:53PM 43.8150 -94.8597 104° East 485 558 35,000  Level Minneapolis Center
02:54PM 43.7761 -94.6417 104° East 487 560 35,000  Level Minneapolis Center
02:55PM 43.7422 -94.4608 104° East 487 560 35,000  Level Minneapolis Center
02:56PM 43.7086 -94.2808 104° East 485 558 35,000  Level Minneapolis Center
02:57PM 43.6728 -94.0947 105° East 483 556 35,000  Level Minneapolis Center
02:58PM 43.6406 -93.9183 104° East 480 552 35,000  Level Minneapolis Center
02:59PM 43.6064 -93.7433 105° East 476 548 35,000  Level Minneapolis Center
03:00PM 43.5722 -93.5672 105° East 477 549 35,000  Level Minneapolis Center
03:01PM 43.5383 -93.3897 105° East 481 554 35,000  Level Minneapolis Center
03:02PM 43.5019 -93.2125 106° East 483 556 35,000  Level Minneapolis Center
03:03PM 43.4608 -92.9997 105° East 484 557 35,000  Level Minneapolis Center
03:04PM 43.4256 -92.8242 105° East 482 555 35,000  Level Minneapolis Center
03:05PM 43.3900 -92.6431 105° East 490 564 35,000 -420 Level Minneapolis Center
03:06PM 43.3544 -92.4669 105° East 484 557 34,200 -900 Descending Minneapolis Center
03:07PM 43.3164 -92.2944 107° East 482 555 33,200 -600 Descending Chicago Center
03:08PM 43.2817 -92.1203 105° East 478 550 33,000 -120 Descending Chicago Center
03:09PM 43.2389 -91.9089 105° East 476 548 33,000  Level Minneapolis Center
03:10PM 43.2019 -91.7328 106° East 479 551 33,000 -420 Level Minneapolis Center
03:11PM 43.1553 -91.5586 110° East 483 556 32,100 -900 Descending Minneapolis Center
03:12PM 43.0928 -91.3939 117° Southeast 489 563 31,200 -1,200 Descending Chicago Center
03:13PM 43.0347 -91.2250 115° Southeast 489 563 29,900 -1,140 Descending Chicago Center
03:14PM 42.9761 -91.0525 115° Southeast 501 577 28,900 -840 Descending Chicago Center
03:15PM 42.9169 -90.8839 116° Southeast 497 572 28,200 -780 Descending Chicago Center
03:16PM 42.8456 -90.6847 116° Southeast 492 566 27,300 -780 Descending Chicago Center
03:17PM 42.7881 -90.5200 115° Southeast 486 559 26,700 -660 Descending Chicago Center
03:18PM 42.7289 -90.3581 116° Southeast 482 555 26,000 -720 Descending Chicago Center
03:19PM 42.6981 -90.1858 104° East 473 544 25,300 -780 Descending Chicago Center
03:20PM 42.6728 -90.0158 101° East 466 536 24,500 -1,260 Descending Chicago Center
03:21PM 42.6428 -89.8150 101° East 458 527 22,700 -1,620 Descending Chicago Center
03:23PM 42.6181 -89.6483 101° East 455 524 21,200 -1,380 Descending Chicago Center
03:24PM 42.5944 -89.4869 101° East 444 511 19,900 -1,200 Descending Chicago Center
03:25PM 42.5686 -89.3300 103° East 432 497 18,800 -1,620 Descending Chicago Center
03:26PM 42.5439 -89.1558 101° East 428 493 16,600 -2,040 Descending Chicago Center
03:27PM 42.5186 -89.0089 103° East 405 466 14,700 -1,740 Descending Chicago Center
03:28PM 42.4864 -88.8653 107° East 404 465 13,100 -1,620 Descending Chicago Center
03:29PM 42.4442 -88.7281 113° Southeast 398 458 11,400 -1,260 Descending Chicago Center
03:30PM 42.4033 -88.5933 112° Southeast 390 449 10,500 -720 Descending Chicago Center
03:31PM 42.3539 -88.4311 112° Southeast 389 448 10,000 -300 Descending Chicago Center
03:32PM 42.2933 -88.3117 124° Southeast 391 450 10,000 -60 Level Chicago Center
03:33PM 42.2311 -88.2067 129° Southeast 369 425 9,900 -540 Descending Chicago Center
03:34PM 42.1717 -88.1178 132° Southeast 334 384 8,900 -1,020 Descending Chicago Center
03:35PM 42.1072 -88.0475 141° Southeast 315 362 7,900 -960 Descending Chicago Center
03:36PM 42.0919 -87.9403 101° East 306 352 7,000 -480 Descending Chicago Center
03:37PM 42.0919 -87.8367 90° East 292 336 7,000 -540 Level Chicago Center
03:38PM 42.0819 -87.7275 97° East 266 306 5,900 -1,140 Descending Chicago Center
03:39PM 42.0333 -87.6667 137° Southeast 240 276 4,500 -960 Descending Chicago TRACON
03:40PM 41.9833 -87.7000 206° Southwest 193 222 4,000 -1,080 Descending Chicago TRACON
03:41PM 41.9833 -87.7667 270° West 174 200 2,500 -1,200 Descending Chicago TRACON
03:42PM 41.9833 -87.8167 270° West 147 169 1,600 -840 Descending Chicago TRACON
03:43PM 41.9833 -87.8667 270° West 138 159 900 -720 Descending Chicago TRACON